USCGC Tern — NEOT — position and weather

sailwx.info

Track history (hours):
 
Tides and Currents Weather Stations Pressure Air Temp Water Temp Dewpoint Dewpoint Depression Visibility Wind Speed Wind Dir Waves Ship Positions

USCGC Tern

Last reported at 2018-Apr-09 16:16 UTC. Time now 2018-Apr-22 21:56 UTC.
Position N 32°43' W 117°20'.
Warning: this ship's position is 13 days out of date.

Length 26 m; draft 1.7 m.

Type: SAR. MMSI: 366999711.

Date/timePositionNaut miles runAvg speedWind from/ knotsBaromVisibWave heightAir tempDewpointWater temp
2018-Apr-09 16:16N 32°43' W 117°20'521.0
2018-Apr-09 16:00N 32°46' W 117°25'1020.7
2018-Apr-09 15:31N 32°53' W 117°34'1020.9
2018-Apr-09 15:00N 32°59' W 117°44'1020.5
2018-Apr-09 14:30N 33°06' W 117°53'1019.1
2018-Apr-09 14:01N 33°13' W 118°01'1019.7
2018-Apr-09 13:30N 33°18' W 118°11'8 3.3
2018-Apr-09 11:14N 33°21' W 118°19'0 0.0
2018-Apr-09 10:50N 33°21' W 118°19'0 0.0
2018-Apr-09 10:26N 33°21' W 118°19'0 0.0
2018-Apr-09 09:50N 33°21' W 118°19'0 0.0
2018-Apr-09 06:09N 33°21' W 118°19'1 0.3
2018-Apr-09 01:37N 33°22' W 118°20'320.2
2018-Apr-09 01:29N 33°25' W 118°21'919.6
2018-Apr-09 01:00N 33°32' W 118°28'1019.5
2018-Apr-09 00:30N 33°38' W 118°37'1019.4
2018-Apr-09 00:00N 33°44' W 118°46'1019.3
2018-Apr-08 23:30N 33°51' W 118°55'1019.8
2018-Apr-08 23:00N 33°57' W 119°04'1121.5
2018-Apr-08 22:30N 34°04' W 119°14'1121.4
2018-Apr-08 22:00N 34°11' W 119°23'1121.6
2018-Apr-08 21:30N 34°18' W 119°33'917.9
2018-Apr-08 21:00N 34°24' W 119°41'0 0.1
2018-Apr-08 18:58N 34°24' W 119°42'0 0.3
2018-Apr-08 18:30N 34°24' W 119°41'5 9.3
2018-Apr-08 17:59N 34°21' W 119°45'1020.4
2018-Apr-08 17:30N 34°15' W 119°55'918.1
2018-Apr-08 17:00N 34°17' W 120°05'1121.8
2018-Apr-08 16:30N 34°20' W 120°18'1121.7
2018-Apr-08 16:00N 34°25' W 120°30'1122.0
2018-Apr-08 15:31N 34°32' W 120°40'1122.1
2018-Apr-08 15:00N 34°41' W 120°47'1019.4
2018-Apr-08 14:30N 34°50' W 120°54'815.3
2018-Apr-08 14:01N 34°56' W 120°58'715.0
2018-Apr-08 13:31N 35°03' W 121°03'714.5
2018-Apr-08 13:00N 35°09' W 121°07'815.2
2018-Apr-08 12:28N 35°16' W 121°13'715.6
2018-Apr-08 12:00N 35°22' W 121°17'11914.6
2018-Apr-08 03:53N 37°08' W 122°25'514.7
2018-Apr-08 03:30N 37°13' W 122°28'714.7
2018-Apr-08 03:00N 37°20' W 122°30'714.2
2018-Apr-08 02:30N 37°27' W 122°32'713.9
2018-Apr-08 02:00N 37°33' W 122°34'713.7
2018-Apr-08 01:30N 37°40' W 122°36'611.5
2018-Apr-08 01:01N 37°46' W 122°36'713.1
2018-Apr-08 00:30N 37°49' W 122°28'  
2018-Apr-01 04:34N 37°49' W 122°22'0 0.0
2018-Apr-01 04:16N 37°49' W 122°22'0 0.0
2018-Apr-01 03:55N 37°49' W 122°22'0 0.0
2018-Apr-01 03:28N 37°49' W 122°22'0 0.4
2018-Apr-01 03:00N 37°48' W 122°22'3 5.5
2018-Apr-01 02:31N 37°49' W 122°25'3 5.8
2018-Apr-01 02:00N 37°49' W 122°29'2 3.8
2018-Apr-01 01:30N 37°48' W 122°31'3 5.5
2018-Apr-01 01:00N 37°49' W 122°28'1 1.0
2018-Apr-01 00:30N 37°49' W 122°28'1 1.1
2018-Apr-01 00:00N 37°49' W 122°29'3 5.6
2018-Mar-31 23:31N 37°51' W 122°26'713.4
2018-Mar-31 23:00N 37°58' W 122°27'714.6
2018-Mar-31 22:30N 38°03' W 122°20'613.0
2018-Mar-31 22:00N 38°04' W 122°12'5 9.3
2018-Mar-31 21:26N 38°03' W 122°05'410.1
2018-Mar-31 21:00N 38°04' W 121°60'511.0
2018-Mar-31 20:30N 38°03' W 121°53'3 6.9
2018-Mar-31 20:00N 38°01' W 121°49'19 7.6
2018-Mar-31 17:31N 37°60' W 121°25'  
Track history (hours):
 
Tides and Currents Weather Stations Pressure Air Temp Water Temp Dewpoint Dewpoint Depression Visibility Wind Speed Wind Dir Waves Ship Positions

USCGC Tern

Last reported at 2018-Apr-09 16:16 UTC. Time now 2018-Apr-22 21:56 UTC.
Position N 32°43' W 117°20'.
Warning: this ship's position is 13 days out of date.

Length 26 m; draft 1.7 m.

Type: SAR. MMSI: 366999711.

Date/timePositionNaut miles runAvg speedWind from/ knotsBaromVisibWave heightAir tempDewpointWater temp
2018-Apr-09 16:16N 32°43' W 117°20'521.0
2018-Apr-09 16:00N 32°46' W 117°25'1020.7
2018-Apr-09 15:31N 32°53' W 117°34'1020.9
2018-Apr-09 15:00N 32°59' W 117°44'1020.5
2018-Apr-09 14:30N 33°06' W 117°53'1019.1
2018-Apr-09 14:01N 33°13' W 118°01'1019.7
2018-Apr-09 13:30N 33°18' W 118°11'8 3.3
2018-Apr-09 11:14N 33°21' W 118°19'0 0.0
2018-Apr-09 10:50N 33°21' W 118°19'0 0.0
2018-Apr-09 10:26N 33°21' W 118°19'0 0.0
2018-Apr-09 09:50N 33°21' W 118°19'0 0.0
2018-Apr-09 06:09N 33°21' W 118°19'1 0.3
2018-Apr-09 01:37N 33°22' W 118°20'320.2
2018-Apr-09 01:29N 33°25' W 118°21'919.6
2018-Apr-09 01:00N 33°32' W 118°28'1019.5
2018-Apr-09 00:30N 33°38' W 118°37'1019.4
2018-Apr-09 00:00N 33°44' W 118°46'1019.3
2018-Apr-08 23:30N 33°51' W 118°55'1019.8
2018-Apr-08 23:00N 33°57' W 119°04'1121.5
2018-Apr-08 22:30N 34°04' W 119°14'1121.4
2018-Apr-08 22:00N 34°11' W 119°23'1121.6
2018-Apr-08 21:30N 34°18' W 119°33'917.9
2018-Apr-08 21:00N 34°24' W 119°41'0 0.1
2018-Apr-08 18:58N 34°24' W 119°42'0 0.3
2018-Apr-08 18:30N 34°24' W 119°41'5 9.3
2018-Apr-08 17:59N 34°21' W 119°45'1020.4
2018-Apr-08 17:30N 34°15' W 119°55'918.1
2018-Apr-08 17:00N 34°17' W 120°05'1121.8
2018-Apr-08 16:30N 34°20' W 120°18'1121.7
2018-Apr-08 16:00N 34°25' W 120°30'1122.0
2018-Apr-08 15:31N 34°32' W 120°40'1122.1
2018-Apr-08 15:00N 34°41' W 120°47'1019.4
2018-Apr-08 14:30N 34°50' W 120°54'815.3
2018-Apr-08 14:01N 34°56' W 120°58'715.0
2018-Apr-08 13:31N 35°03' W 121°03'714.5
2018-Apr-08 13:00N 35°09' W 121°07'815.2
2018-Apr-08 12:28N 35°16' W 121°13'715.6
2018-Apr-08 12:00N 35°22' W 121°17'11914.6
2018-Apr-08 03:53N 37°08' W 122°25'514.7
2018-Apr-08 03:30N 37°13' W 122°28'714.7
2018-Apr-08 03:00N 37°20' W 122°30'714.2
2018-Apr-08 02:30N 37°27' W 122°32'713.9
2018-Apr-08 02:00N 37°33' W 122°34'713.7
2018-Apr-08 01:30N 37°40' W 122°36'611.5
2018-Apr-08 01:01N 37°46' W 122°36'713.1
2018-Apr-08 00:30N 37°49' W 122°28'  
2018-Apr-01 04:34N 37°49' W 122°22'0 0.0
2018-Apr-01 04:16N 37°49' W 122°22'0 0.0
2018-Apr-01 03:55N 37°49' W 122°22'0 0.0
2018-Apr-01 03:28N 37°49' W 122°22'0 0.4
2018-Apr-01 03:00N 37°48' W 122°22'3 5.5
2018-Apr-01 02:31N 37°49' W 122°25'3 5.8
2018-Apr-01 02:00N 37°49' W 122°29'2 3.8
2018-Apr-01 01:30N 37°48' W 122°31'3 5.5
2018-Apr-01 01:00N 37°49' W 122°28'1 1.0
2018-Apr-01 00:30N 37°49' W 122°28'1 1.1
2018-Apr-01 00:00N 37°49' W 122°29'3 5.6
2018-Mar-31 23:31N 37°51' W 122°26'713.4
2018-Mar-31 23:00N 37°58' W 122°27'714.6
2018-Mar-31 22:30N 38°03' W 122°20'613.0
2018-Mar-31 22:00N 38°04' W 122°12'5 9.3
2018-Mar-31 21:26N 38°03' W 122°05'410.1
2018-Mar-31 21:00N 38°04' W 121°60'511.0
2018-Mar-31 20:30N 38°03' W 121°53'3 6.9
2018-Mar-31 20:00N 38°01' W 121°49'19 7.6
2018-Mar-31 17:31N 37°60' W 121°25'  

Dump ship's entire track history